Marcolorado — V2EY5 — position and weather

sailwx.info

Track history (hours):
 
Tides and Currents Weather Stations Pressure Air Temp Water Temp Dewpoint Dewpoint Depression Visibility Wind Speed Wind Dir Waves Ship Positions

Marcolorado

Last reported at 2015-Mar-05 19:32 UTC. Time now 2015-Mar-06 07:32 UTC.
Position N 59°59' E 026°55'.

Length 185 m; draft 6.5 m.

Type: Cargo ship. MMSI: 305599000.

Date/timePositionNaut miles runAvg speedWind from/ knotsBaromVisibWave heightAir tempDewpointWater temp
2015-Mar-05 19:32N 59°59' E 026°55'1313.1
2015-Mar-05 18:34N 59°58' E 026°29'5613.4
2015-Mar-05 14:21N 59°46' E 024°41'2513.1
2015-Mar-05 12:29N 59°39' E 023°53'1213.3
2015-Mar-05 11:32N 59°35' E 023°30'36213.4
2015-Mar-04 08:33N 55°33' E 015°07'1413.9
2015-Mar-04 07:33N 55°27' E 014°45'1413.7
2015-Mar-04 06:33N 55°17' E 014°28'1312.9
2015-Mar-04 05:33N 55°11' E 014°08'1413.9
2015-Mar-04 04:33N 55°12' E 013°44'1414.4
2015-Mar-04 03:33N 55°13' E 013°19'1414.2
2015-Mar-04 02:33N 55°15' E 012°54'1111.2
2015-Mar-04 01:33N 55°22' E 012°39'1212.0
2015-Mar-04 00:33N 55°33' E 012°47'10 9.8
2015-Mar-03 23:33N 55°42' E 012°54'1312.9
2015-Mar-03 22:34N 55°54' E 012°44'1313.5
2015-Mar-03 21:34N 56°06' E 012°34'1414.0
2015-Mar-03 20:33N 56°13' E 012°13'1313.4
2015-Mar-03 19:33N 56°25' E 012°00'1414.3
2015-Mar-03 18:33N 56°39' E 011°54'1414.1
2015-Mar-03 17:34N 56°52' E 011°47'1414.4
2015-Mar-03 16:33N 57°06' E 011°39'1414.3
2015-Mar-03 15:33N 57°19' E 011°30'1414.2
2015-Mar-03 14:33N 57°32' E 011°16'1414.2
2015-Mar-03 13:33N 57°41' E 010°57'1514.5
2015-Mar-03 12:33N 57°46' E 010°31'6715.2
2015-Mar-03 08:10N 57°14' E 008°42'1115.7
2015-Mar-03 07:29N 57°08' E 008°25'11414.2
2015-Mar-02 23:30N 55°32' E 006°34'9313.3
2015-Mar-02 16:32N 54°14' E 005°08'1313.1
2015-Mar-02 15:33N 54°02' E 004°58'1312.6
2015-Mar-02 14:33N 53°50' E 004°54'1212.3
2015-Mar-02 13:32N 53°38' E 004°50'1313.1
2015-Mar-02 12:31N 53°25' E 004°42'1813.2
2015-Mar-02 11:10N 53°09' E 004°29'11713.0
2015-Mar-02 02:10N 51°38' E 002°27'914.6
2015-Mar-02 01:34N 51°32' E 002°19'1514.8
2015-Mar-02 00:34N 51°18' E 002°07'1514.7
2015-Mar-01 23:34N 51°09' E 001°50'1616.4
2015-Mar-01 22:33N 50°57' E 001°32'31711.7
2015-Feb-28 19:24N 47°57' W 005°10'1410.3
2015-Feb-28 18:05N 47°51' W 004°52'5011.0
2015-Feb-28 13:33N 47°39' W 003°40'1110.6
2015-Feb-28 12:34N 47°41' W 003°25'4 4.0
2015-Feb-28 11:32N 47°44' W 003°21'0 0.0
2015-Feb-28 10:32N 47°44' W 003°21'0 0.0
2015-Feb-28 09:32N 47°44' W 003°21'0 0.0
2015-Feb-28 08:32N 47°44' W 003°21'0 0.0
2015-Feb-28 07:32N 47°44' W 003°21'0 0.0
2015-Feb-28 06:32N 47°44' W 003°21'0 0.0
2015-Feb-28 05:32N 47°44' W 003°21'0 0.0
2015-Feb-28 04:32N 47°44' W 003°21'0 0.0
2015-Feb-28 03:32N 47°44' W 003°21'0 0.0
2015-Feb-28 02:32N 47°44' W 003°21'0 0.0
2015-Feb-28 01:32N 47°44' W 003°21'0 0.0
2015-Feb-28 00:32N 47°44' W 003°21'0 0.0
2015-Feb-27 23:32N 47°44' W 003°21'0 0.0
2015-Feb-27 22:32N 47°44' W 003°21'0 0.0
2015-Feb-27 21:32N 47°44' W 003°21'0 0.0
2015-Feb-27 20:32N 47°44' W 003°21'0 0.0
2015-Feb-27 19:32N 47°44' W 003°21'0 0.0
2015-Feb-27 18:32N 47°44' W 003°21'0 0.0
2015-Feb-27 17:32N 47°44' W 003°21'0 0.0
2015-Feb-27 16:32N 47°44' W 003°21'0 0.0
2015-Feb-27 15:32N 47°44' W 003°21'0 0.0
2015-Feb-27 14:32N 47°44' W 003°21'0 0.0
2015-Feb-27 13:32N 47°44' W 003°21'0 0.0
2015-Feb-27 12:32N 47°44' W 003°21'0 0.0
2015-Feb-27 11:32N 47°44' W 003°21'0 0.0
2015-Feb-27 10:32N 47°44' W 003°21'0 0.0
2015-Feb-27 09:32N 47°44' W 003°21'0 0.0
2015-Feb-27 08:32N 47°44' W 003°21'0 0.0
2015-Feb-27 07:32N 47°44' W 003°21'0 0.0
2015-Feb-27 06:32N 47°44' W 003°21'0 0.0
2015-Feb-27 05:32N 47°44' W 003°21'0 0.0
2015-Feb-27 04:32N 47°44' W 003°21'0 0.0
2015-Feb-27 03:32N 47°44' W 003°21'0 0.0
2015-Feb-27 02:32N 47°44' W 003°21'0 0.0
2015-Feb-27 01:32N 47°44' W 003°21'0 0.0
2015-Feb-27 00:32N 47°44' W 003°21'0 0.0
2015-Feb-26 23:32N 47°44' W 003°21'0 0.0
2015-Feb-26 22:32N 47°44' W 003°21'0 0.0
2015-Feb-26 21:32N 47°44' W 003°21'0 0.0
2015-Feb-26 20:32N 47°44' W 003°21'0 0.0
2015-Feb-26 19:32N 47°44' W 003°21'0 0.0
2015-Feb-26 18:32N 47°44' W 003°21'0 0.0
2015-Feb-26 17:32N 47°44' W 003°21'0 0.0
2015-Feb-26 16:32N 47°44' W 003°21'0 0.0
2015-Feb-26 15:32N 47°44' W 003°21'0 0.0
2015-Feb-26 14:32N 47°44' W 003°21'0 0.0
2015-Feb-26 13:32N 47°44' W 003°21'0 0.0
2015-Feb-26 12:32N 47°44' W 003°21'0 0.0
2015-Feb-26 11:32N 47°44' W 003°21'0 0.0
2015-Feb-26 10:32N 47°44' W 003°21'0 0.0
2015-Feb-26 09:32N 47°44' W 003°21'0 0.0
2015-Feb-26 08:32N 47°44' W 003°21'0 0.0
2015-Feb-26 07:32N 47°44' W 003°21'0 0.0
2015-Feb-26 06:32N 47°44' W 003°21'0 0.0
2015-Feb-26 05:32N 47°44' W 003°21'0 0.0
2015-Feb-26 04:32N 47°44' W 003°21'0 0.0
2015-Feb-26 03:32N 47°44' W 003°21'0 0.0
2015-Feb-26 02:32N 47°44' W 003°21'0 0.0
2015-Feb-26 01:32N 47°44' W 003°21'0 0.0
2015-Feb-26 00:32N 47°44' W 003°21'0 0.0
2015-Feb-25 23:32N 47°44' W 003°21'0 0.0
2015-Feb-25 22:32N 47°44' W 003°21'0 0.0
2015-Feb-25 21:32N 47°44' W 003°21'0 0.0
2015-Feb-25 20:32N 47°44' W 003°21'0 0.0
2015-Feb-25 19:32N 47°44' W 003°21'0 0.0
2015-Feb-25 18:32N 47°44' W 003°21'0 0.0
2015-Feb-25 17:32N 47°44' W 003°21'0 0.0
2015-Feb-25 16:32N 47°44' W 003°21'0 0.0
2015-Feb-25 15:32N 47°44' W 003°21'0 0.0
2015-Feb-25 14:32N 47°44' W 003°21'0 0.0
2015-Feb-25 13:32N 47°44' W 003°21'0 0.0
2015-Feb-25 12:32N 47°44' W 003°21'0 0.0
2015-Feb-25 11:32N 47°44' W 003°21'0 0.0
2015-Feb-25 10:32N 47°44' W 003°21'0 0.0
2015-Feb-25 09:32N 47°44' W 003°21'0 0.0
2015-Feb-25 08:32N 47°44' W 003°21'0 0.0
2015-Feb-25 07:32N 47°44' W 003°21'0 0.0
2015-Feb-25 06:32N 47°44' W 003°21'0 0.0
2015-Feb-25 05:32N 47°44' W 003°21'0 0.0
2015-Feb-25 04:32N 47°44' W 003°21'0 0.0
2015-Feb-25 03:32N 47°44' W 003°21'0 0.0
2015-Feb-25 02:32N 47°44' W 003°21'0 0.0
2015-Feb-25 01:32N 47°44' W 003°21'0 0.0
2015-Feb-25 00:32N 47°44' W 003°21'0 0.0
2015-Feb-24 23:32N 47°44' W 003°21'0 0.0
2015-Feb-24 22:32N 47°44' W 003°21'0 0.0
2015-Feb-24 21:32N 47°44' W 003°21'0 0.0
2015-Feb-24 20:32N 47°44' W 003°21'0 0.0
2015-Feb-24 19:32N 47°44' W 003°21'0 0.0
2015-Feb-24 18:32N 47°44' W 003°21'0 0.0
2015-Feb-24 17:32N 47°44' W 003°21'0 0.0
2015-Feb-24 16:32N 47°44' W 003°21'0 0.0
2015-Feb-24 15:32N 47°44' W 003°21'0 0.0
2015-Feb-24 14:32N 47°44' W 003°21'0 0.0
2015-Feb-24 13:32N 47°44' W 003°21'0 0.0
2015-Feb-24 12:32N 47°44' W 003°21'0 0.0
2015-Feb-24 11:32N 47°44' W 003°21'0 0.0
2015-Feb-24 10:32N 47°44' W 003°21'0 0.0
2015-Feb-24 09:32N 47°44' W 003°21'0 0.0
2015-Feb-24 08:32N 47°44' W 003°21'0 0.0
2015-Feb-24 07:32N 47°44' W 003°21'0 0.0
2015-Feb-24 06:32N 47°44' W 003°21'0 0.0
2015-Feb-24 05:32N 47°44' W 003°21'0 0.0
2015-Feb-24 04:32N 47°44' W 003°21'0 0.0
2015-Feb-24 03:32N 47°44' W 003°21'0 0.0
2015-Feb-24 02:32N 47°44' W 003°21'0 0.0
2015-Feb-24 01:32N 47°44' W 003°21'0 0.0
2015-Feb-24 00:32N 47°44' W 003°21'0 0.0
2015-Feb-23 23:32N 47°44' W 003°21'0 0.0
2015-Feb-23 22:32N 47°44' W 003°21'0 0.0
2015-Feb-23 21:32N 47°44' W 003°21'0 0.0
2015-Feb-23 20:32N 47°44' W 003°21'0 0.0
2015-Feb-23 19:32N 47°44' W 003°21'  
Track history (hours):
 
Tides and Currents Weather Stations Pressure Air Temp Water Temp Dewpoint Dewpoint Depression Visibility Wind Speed Wind Dir Waves Ship Positions

Marcolorado

Last reported at 2015-Mar-05 19:32 UTC. Time now 2015-Mar-06 07:32 UTC.
Position N 59°59' E 026°55'.

Length 185 m; draft 6.5 m.

Type: Cargo ship. MMSI: 305599000.

Date/timePositionNaut miles runAvg speedWind from/ knotsBaromVisibWave heightAir tempDewpointWater temp
2015-Mar-05 19:32N 59°59' E 026°55'1313.1
2015-Mar-05 18:34N 59°58' E 026°29'5613.4
2015-Mar-05 14:21N 59°46' E 024°41'2513.1
2015-Mar-05 12:29N 59°39' E 023°53'1213.3
2015-Mar-05 11:32N 59°35' E 023°30'36213.4
2015-Mar-04 08:33N 55°33' E 015°07'1413.9
2015-Mar-04 07:33N 55°27' E 014°45'1413.7
2015-Mar-04 06:33N 55°17' E 014°28'1312.9
2015-Mar-04 05:33N 55°11' E 014°08'1413.9
2015-Mar-04 04:33N 55°12' E 013°44'1414.4
2015-Mar-04 03:33N 55°13' E 013°19'1414.2
2015-Mar-04 02:33N 55°15' E 012°54'1111.2
2015-Mar-04 01:33N 55°22' E 012°39'1212.0
2015-Mar-04 00:33N 55°33' E 012°47'10 9.8
2015-Mar-03 23:33N 55°42' E 012°54'1312.9
2015-Mar-03 22:34N 55°54' E 012°44'1313.5
2015-Mar-03 21:34N 56°06' E 012°34'1414.0
2015-Mar-03 20:33N 56°13' E 012°13'1313.4
2015-Mar-03 19:33N 56°25' E 012°00'1414.3
2015-Mar-03 18:33N 56°39' E 011°54'1414.1
2015-Mar-03 17:34N 56°52' E 011°47'1414.4
2015-Mar-03 16:33N 57°06' E 011°39'1414.3
2015-Mar-03 15:33N 57°19' E 011°30'1414.2
2015-Mar-03 14:33N 57°32' E 011°16'1414.2
2015-Mar-03 13:33N 57°41' E 010°57'1514.5
2015-Mar-03 12:33N 57°46' E 010°31'6715.2
2015-Mar-03 08:10N 57°14' E 008°42'1115.7
2015-Mar-03 07:29N 57°08' E 008°25'11414.2
2015-Mar-02 23:30N 55°32' E 006°34'9313.3
2015-Mar-02 16:32N 54°14' E 005°08'1313.1
2015-Mar-02 15:33N 54°02' E 004°58'1312.6
2015-Mar-02 14:33N 53°50' E 004°54'1212.3
2015-Mar-02 13:32N 53°38' E 004°50'1313.1
2015-Mar-02 12:31N 53°25' E 004°42'1813.2
2015-Mar-02 11:10N 53°09' E 004°29'11713.0
2015-Mar-02 02:10N 51°38' E 002°27'914.6
2015-Mar-02 01:34N 51°32' E 002°19'1514.8
2015-Mar-02 00:34N 51°18' E 002°07'1514.7
2015-Mar-01 23:34N 51°09' E 001°50'1616.4
2015-Mar-01 22:33N 50°57' E 001°32'31711.7
2015-Feb-28 19:24N 47°57' W 005°10'1410.3
2015-Feb-28 18:05N 47°51' W 004°52'5011.0
2015-Feb-28 13:33N 47°39' W 003°40'1110.6
2015-Feb-28 12:34N 47°41' W 003°25'4 4.0
2015-Feb-28 11:32N 47°44' W 003°21'0 0.0
2015-Feb-28 10:32N 47°44' W 003°21'0 0.0
2015-Feb-28 09:32N 47°44' W 003°21'0 0.0
2015-Feb-28 08:32N 47°44' W 003°21'0 0.0
2015-Feb-28 07:32N 47°44' W 003°21'0 0.0
2015-Feb-28 06:32N 47°44' W 003°21'0 0.0
2015-Feb-28 05:32N 47°44' W 003°21'0 0.0
2015-Feb-28 04:32N 47°44' W 003°21'0 0.0
2015-Feb-28 03:32N 47°44' W 003°21'0 0.0
2015-Feb-28 02:32N 47°44' W 003°21'0 0.0
2015-Feb-28 01:32N 47°44' W 003°21'0 0.0
2015-Feb-28 00:32N 47°44' W 003°21'0 0.0
2015-Feb-27 23:32N 47°44' W 003°21'0 0.0
2015-Feb-27 22:32N 47°44' W 003°21'0 0.0
2015-Feb-27 21:32N 47°44' W 003°21'0 0.0
2015-Feb-27 20:32N 47°44' W 003°21'0 0.0
2015-Feb-27 19:32N 47°44' W 003°21'0 0.0
2015-Feb-27 18:32N 47°44' W 003°21'0 0.0
2015-Feb-27 17:32N 47°44' W 003°21'0 0.0
2015-Feb-27 16:32N 47°44' W 003°21'0 0.0
2015-Feb-27 15:32N 47°44' W 003°21'0 0.0
2015-Feb-27 14:32N 47°44' W 003°21'0 0.0
2015-Feb-27 13:32N 47°44' W 003°21'0 0.0
2015-Feb-27 12:32N 47°44' W 003°21'0 0.0
2015-Feb-27 11:32N 47°44' W 003°21'0 0.0
2015-Feb-27 10:32N 47°44' W 003°21'0 0.0
2015-Feb-27 09:32N 47°44' W 003°21'0 0.0
2015-Feb-27 08:32N 47°44' W 003°21'0 0.0
2015-Feb-27 07:32N 47°44' W 003°21'0 0.0
2015-Feb-27 06:32N 47°44' W 003°21'0 0.0
2015-Feb-27 05:32N 47°44' W 003°21'0 0.0
2015-Feb-27 04:32N 47°44' W 003°21'0 0.0
2015-Feb-27 03:32N 47°44' W 003°21'0 0.0
2015-Feb-27 02:32N 47°44' W 003°21'0 0.0
2015-Feb-27 01:32N 47°44' W 003°21'0 0.0
2015-Feb-27 00:32N 47°44' W 003°21'0 0.0
2015-Feb-26 23:32N 47°44' W 003°21'0 0.0
2015-Feb-26 22:32N 47°44' W 003°21'0 0.0
2015-Feb-26 21:32N 47°44' W 003°21'0 0.0
2015-Feb-26 20:32N 47°44' W 003°21'0 0.0
2015-Feb-26 19:32N 47°44' W 003°21'0 0.0
2015-Feb-26 18:32N 47°44' W 003°21'0 0.0
2015-Feb-26 17:32N 47°44' W 003°21'0 0.0
2015-Feb-26 16:32N 47°44' W 003°21'0 0.0
2015-Feb-26 15:32N 47°44' W 003°21'0 0.0
2015-Feb-26 14:32N 47°44' W 003°21'0 0.0
2015-Feb-26 13:32N 47°44' W 003°21'0 0.0
2015-Feb-26 12:32N 47°44' W 003°21'0 0.0
2015-Feb-26 11:32N 47°44' W 003°21'0 0.0
2015-Feb-26 10:32N 47°44' W 003°21'0 0.0
2015-Feb-26 09:32N 47°44' W 003°21'0 0.0
2015-Feb-26 08:32N 47°44' W 003°21'0 0.0
2015-Feb-26 07:32N 47°44' W 003°21'0 0.0
2015-Feb-26 06:32N 47°44' W 003°21'0 0.0
2015-Feb-26 05:32N 47°44' W 003°21'0 0.0
2015-Feb-26 04:32N 47°44' W 003°21'0 0.0
2015-Feb-26 03:32N 47°44' W 003°21'0 0.0
2015-Feb-26 02:32N 47°44' W 003°21'0 0.0
2015-Feb-26 01:32N 47°44' W 003°21'0 0.0
2015-Feb-26 00:32N 47°44' W 003°21'0 0.0
2015-Feb-25 23:32N 47°44' W 003°21'0 0.0
2015-Feb-25 22:32N 47°44' W 003°21'0 0.0
2015-Feb-25 21:32N 47°44' W 003°21'0 0.0
2015-Feb-25 20:32N 47°44' W 003°21'0 0.0
2015-Feb-25 19:32N 47°44' W 003°21'0 0.0
2015-Feb-25 18:32N 47°44' W 003°21'0 0.0
2015-Feb-25 17:32N 47°44' W 003°21'0 0.0
2015-Feb-25 16:32N 47°44' W 003°21'0 0.0
2015-Feb-25 15:32N 47°44' W 003°21'0 0.0
2015-Feb-25 14:32N 47°44' W 003°21'0 0.0
2015-Feb-25 13:32N 47°44' W 003°21'0 0.0
2015-Feb-25 12:32N 47°44' W 003°21'0 0.0
2015-Feb-25 11:32N 47°44' W 003°21'0 0.0
2015-Feb-25 10:32N 47°44' W 003°21'0 0.0
2015-Feb-25 09:32N 47°44' W 003°21'0 0.0
2015-Feb-25 08:32N 47°44' W 003°21'0 0.0
2015-Feb-25 07:32N 47°44' W 003°21'0 0.0
2015-Feb-25 06:32N 47°44' W 003°21'0 0.0
2015-Feb-25 05:32N 47°44' W 003°21'0 0.0
2015-Feb-25 04:32N 47°44' W 003°21'0 0.0
2015-Feb-25 03:32N 47°44' W 003°21'0 0.0
2015-Feb-25 02:32N 47°44' W 003°21'0 0.0
2015-Feb-25 01:32N 47°44' W 003°21'0 0.0
2015-Feb-25 00:32N 47°44' W 003°21'0 0.0
2015-Feb-24 23:32N 47°44' W 003°21'0 0.0
2015-Feb-24 22:32N 47°44' W 003°21'0 0.0
2015-Feb-24 21:32N 47°44' W 003°21'0 0.0
2015-Feb-24 20:32N 47°44' W 003°21'0 0.0
2015-Feb-24 19:32N 47°44' W 003°21'0 0.0
2015-Feb-24 18:32N 47°44' W 003°21'0 0.0
2015-Feb-24 17:32N 47°44' W 003°21'0 0.0
2015-Feb-24 16:32N 47°44' W 003°21'0 0.0
2015-Feb-24 15:32N 47°44' W 003°21'0 0.0
2015-Feb-24 14:32N 47°44' W 003°21'0 0.0
2015-Feb-24 13:32N 47°44' W 003°21'0 0.0
2015-Feb-24 12:32N 47°44' W 003°21'0 0.0
2015-Feb-24 11:32N 47°44' W 003°21'0 0.0
2015-Feb-24 10:32N 47°44' W 003°21'0 0.0
2015-Feb-24 09:32N 47°44' W 003°21'0 0.0
2015-Feb-24 08:32N 47°44' W 003°21'0 0.0
2015-Feb-24 07:32N 47°44' W 003°21'0 0.0
2015-Feb-24 06:32N 47°44' W 003°21'0 0.0
2015-Feb-24 05:32N 47°44' W 003°21'0 0.0
2015-Feb-24 04:32N 47°44' W 003°21'0 0.0
2015-Feb-24 03:32N 47°44' W 003°21'0 0.0
2015-Feb-24 02:32N 47°44' W 003°21'0 0.0
2015-Feb-24 01:32N 47°44' W 003°21'0 0.0
2015-Feb-24 00:32N 47°44' W 003°21'0 0.0
2015-Feb-23 23:32N 47°44' W 003°21'0 0.0
2015-Feb-23 22:32N 47°44' W 003°21'0 0.0
2015-Feb-23 21:32N 47°44' W 003°21'0 0.0
2015-Feb-23 20:32N 47°44' W 003°21'0 0.0
2015-Feb-23 19:32N 47°44' W 003°21'  

Dump ship's entire track history